Elwood, New York
Current Conditions -  °F | °C
As of 7:53 AM on Wednesday 22 Oct 2014 (Local Time) from KFRG Reporting Station
Moderate Rain Moderate Rain  
Wind Chill: 13°   Ceiling: 1100
Heat Index: 13°   Visibility: 7mi
Dew Point: 11°   Wind: 17mph
Humidity: 89%   Direction: 30°NNE
Pressure: 29.9"   Gusts: NA
Location:  40.85°N, 73.33°W
Report Text: KFRG 221153Z AUTO 03015KT 7SM RA OVC011 13/11 A2990 RMK AO2 LTG DSNT S AND SW SLP125 P0004 60005 70035 T01280111 10144 20128 52012
Loading
Personal Weather Stations






























Interactive Weather Map
Tropical Storm Tracking
New forecast layout! Learn more

10-Day Weather Forecast

Advertisements
Track Severe Weather on mobile